CheckWX is a tool to help pilots better visualize weather data.  It is not intended as a substitute for an official pre-flight weather briefing.

14:42:39 UTC

KTVY METAR
Bolinder Field-Tooele Valley Airport
Tooele, Utah, USA
Current

8 mins ago

KTVY 291435Z AUTO 19018KT 10SM BKN065 BKN100 03/00 A3006 RMK AO2
Observed
Mar-29 @ 14:35 UTC
Wind
  • 190° at 18 KTS
Visibility
10 SM
Flight Rules
VFR
Cloud Levels
  • Broken at 6,500' AGL
  • Broken at 10,000' AGL
Temperature
C / 37°F
Dewpoint
C / 32°F
Humidity
81%
Altimeter
30.06" Hg
Pressure
1017.92 hPa
Previous

28 mins ago

KTVY 291415Z AUTO 20015KT 10SM SCT055 BKN065 03/00 A3006 RMK AO2
Observed
Mar-29 @ 14:15 UTC
Wind
  • 200° at 15 KTS
Visibility
10 SM
Flight Rules
VFR
Cloud Levels
  • Scattered at 5,500' AGL
  • Broken at 6,500' AGL
Temperature
C / 37°F
Dewpoint
C / 32°F
Humidity
81%
Altimeter
30.06" Hg
Pressure
1017.92 hPa
Previous

48 mins ago

KTVY 291355Z AUTO 21007KT 10SM BKN065 OVC080 03/00 A3006 RMK AO2
Observed
Mar-29 @ 13:55 UTC
Wind
  • 210° at 7 KTS
Visibility
10 SM
Flight Rules
VFR
Cloud Levels
  • Broken at 6,500' AGL
  • Overcast at 8,000' AGL
Temperature
C / 37°F
Dewpoint
C / 32°F
Humidity
81%
Altimeter
30.06" Hg
Pressure
1017.92 hPa